Latest Weather Observations for Newdegate

IDW60801

Issued at 12:05 pm WST Thursday 24 July 2014 (issued every 30 minutes, with the page automatically refreshed every 10 minutes)

About weather observations | Map of weather stations | Latest weather observations for WA | Other Formats
Station Details ID: 010692 Name: NEWDEGATE RESEARCH STATION Lat: -33.11 Lon: 118.84 Height: 320.0 m
Data from the previous 72 hours. | See also: Recent months at Newdegate
Date/Time
WST
Temp
°C
App
Temp
°C
Dew
Point
Rel
Hum
%
Delta-T
°C
Wind Press
QNH
hPa
Press
MSL
hPa
Rain
since 9 am
mm
Dir
 
Spd
km/h
Gust
km/h
Spd
kts
Gust
kts
24/12:00pm 13.8 9.2 6.7 62 3.5 WSW 20 32 11 17 1019.6 1019.9 0.0
24/11:30am 13.7 8.8 6.8 63 3.4 WSW 22 32 12 17 1019.8 - 0.0
24/11:00am 13.1 8.5 6.5 64 3.2 WSW 20 30 11 16 1020.1 1020.4 0.0
24/10:30am 12.8 8.4 7.3 69 2.7 WSW 20 32 11 17 1020.2 - 0.0
24/10:00am 12.1 8.0 7.8 75 2.1 WSW 19 26 10 14 1020.4 1020.7 0.0
24/09:30am 11.2 7.7 8.8 85 1.2 W 17 26 9 14 1020.3 - 0.0
24/09:00am 9.5 6.5 7.9 90 0.8 W 13 20 7 11 1020.1 1020.4 0.2
24/08:30am 8.9 7.0 7.5 91 0.7 W 7 15 4 8 1019.7 - 0.2
24/08:00am 7.9 5.0 6.5 91 0.7 W 11 19 6 10 1019.3 1019.6 0.2
24/07:30am 7.7 4.4 6.3 91 0.7 W 13 19 7 10 1019.0 - 0.2
24/07:00am 7.5 4.1 6.1 91 0.6 W 13 19 7 10 1018.6 1019.0 0.2
24/06:30am 7.8 4.5 6.3 90 0.7 W 13 20 7 11 1018.3 - 0.2
24/06:00am 8.2 5.0 6.8 91 0.7 W 13 19 7 10 1018.1 1018.4 0.2
24/05:30am 8.3 5.5 6.9 91 0.7 W 11 15 6 8 1017.9 - 0.2
24/05:00am 8.8 5.7 7.3 90 0.7 W 13 20 7 11 1017.8 1018.1 0.2
24/04:30am 9.0 6.4 7.6 91 0.7 W 11 15 6 8 1017.8 - 0.2
24/04:00am 8.8 6.5 7.3 90 0.7 W 9 15 5 8 1017.7 1018.0 0.2
24/03:30am 8.7 5.6 7.2 90 0.7 WNW 13 19 7 10 1017.7 - 0.2
24/03:00am 8.5 5.3 7.0 90 0.7 WNW 13 20 7 11 1017.7 1018.0 0.2
24/02:30am 8.8 3.9 7.1 89 0.8 WNW 22 37 12 20 1017.5 - 0.0
24/02:00am 8.4 4.8 6.9 90 0.7 NW 15 22 8 12 1017.5 1017.8 0.0
24/01:30am 8.1 4.5 6.6 90 0.7 NW 15 20 8 11 1017.5 - 0.0
24/01:00am 7.6 4.6 6.1 90 0.7 WNW 11 17 6 9 1017.8 1018.1 0.0
24/12:30am 7.4 4.4 5.9 90 0.7 WNW 11 17 6 9 1017.8 - 0.0
24/12:00am 7.5 4.1 5.8 89 0.8 WNW 13 17 7 9 1018.0 1018.3 0.0
 
Date/Time
WST
Temp
°C
App
Temp
°C
Dew
Point
Rel
Hum
%
Delta-T
°C
Wind Press
QNH
hPa
Press
MSL
hPa
Rain
since 9 am
mm
Dir
 
Spd
km/h
Gust
km/h
Spd
kts
Gust
kts
23/11:30pm 7.4 4.0 5.7 89 0.8 NW 13 19 7 10 1018.1 - 0.0
23/11:00pm 7.4 4.0 5.7 89 0.8 WNW 13 17 7 9 1018.4 1018.7 0.0
23/10:30pm 7.6 4.6 5.9 89 0.8 WNW 11 17 6 9 1018.7 - 0.0
23/10:00pm 7.6 4.2 5.9 89 0.8 NW 13 19 7 10 1018.7 1019.1 0.0
23/09:30pm 7.5 4.8 5.6 88 0.9 WNW 9 13 5 7 1018.8 - 0.0
23/09:00pm 7.5 4.8 5.6 88 0.9 WNW 9 13 5 7 1019.0 1019.3 0.0
23/08:30pm 7.8 5.1 5.8 87 0.9 WNW 9 15 5 8 1019.0 - 0.0
23/08:00pm 7.8 5.1 5.4 85 1.1 WNW 9 13 5 7 1019.2 1019.5 0.0
23/07:30pm 7.7 4.8 4.8 82 1.3 WNW 9 11 5 6 1019.0 - 0.0
23/07:00pm 8.3 5.9 5.1 80 1.4 WNW 7 11 4 6 1018.7 1019.1 0.0
23/06:30pm 7.9 5.0 4.5 79 1.5 NW 9 11 5 6 1018.4 - 0.0
23/06:00pm 9.0 6.1 4.8 75 1.9 NW 9 15 5 8 1018.3 1018.6 0.0
23/05:30pm 9.9 7.4 4.5 69 2.5 W 7 13 4 7 1018.4 - 0.0
23/05:00pm 11.2 7.5 4.4 63 3.1 W 13 19 7 10 1018.3 1018.6 0.0
23/04:30pm 12.2 8.1 4.2 58 3.7 W 15 24 8 13 1018.2 - 0.0
23/04:00pm 12.7 7.8 4.2 56 3.9 W 19 32 10 17 1018.3 1018.6 0.0
23/03:30pm 12.6 7.5 4.3 57 3.8 W 20 32 11 17 1018.2 - 0.0
23/03:00pm 13.1 8.2 5.0 58 3.8 W 20 33 11 18 1018.2 1018.5 0.0
23/02:30pm 12.9 8.6 5.3 60 3.6 W 17 26 9 14 1018.3 - 0.0
23/02:00pm 11.8 7.0 4.5 61 3.4 W 19 28 10 15 1018.4 1018.7 0.0
23/01:30pm 12.6 8.2 6.4 66 3.0 W 19 26 10 14 1018.4 - 0.0
23/01:00pm 11.7 7.2 6.0 68 2.7 W 19 32 10 17 1018.5 1018.8 0.0
23/12:30pm 11.8 7.4 6.5 70 2.6 W 19 26 10 14 1019.0 - 0.0
23/12:00pm 11.3 7.3 6.8 74 2.2 WSW 17 22 9 12 1019.5 1019.8 0.0
23/11:30am 10.3 5.8 6.3 76 1.9 WSW 19 28 10 15 1020.2 - 0.0
23/11:00am 10.2 6.2 6.5 78 1.8 WSW 17 28 9 15 1020.2 1020.5 0.0
23/10:30am 9.5 5.5 6.6 82 1.4 WSW 17 24 9 13 1020.4 - 0.0
23/10:00am 9.1 5.6 7.2 88 0.9 WSW 15 24 8 13 1020.5 1020.8 0.0
23/09:30am 8.5 4.6 7.0 90 0.7 WSW 17 24 9 13 1020.5 - 0.0
23/09:00am 8.3 4.0 6.9 91 0.7 WSW 19 24 10 13 1020.7 1021.0 0.8
23/08:30am 8.0 3.6 6.6 91 0.7 W 19 24 10 13 1020.4 - 0.8
23/08:00am 8.1 4.1 6.7 91 0.7 WSW 17 20 9 11 1020.0 1020.3 0.8
23/07:30am 7.8 4.5 6.4 91 0.7 WSW 13 19 7 10 1019.4 - 0.8
23/07:00am 7.9 4.2 6.5 91 0.7 WSW 15 19 8 10 1019.1 1019.4 0.8
23/06:30am 8.1 4.5 6.6 90 0.7 WSW 15 20 8 11 1018.8 - 0.8
23/06:00am 8.2 4.6 6.7 90 0.7 WSW 15 22 8 12 1018.7 1019.1 0.6
23/05:30am 8.4 4.0 6.5 88 0.9 WSW 19 24 10 13 1018.6 - 0.6
23/05:00am 8.6 4.2 6.6 87 0.9 SW 19 26 10 14 1018.4 1018.7 0.6
23/04:30am 8.5 4.5 6.5 87 0.9 SW 17 28 9 15 1018.3 - 0.6
23/04:00am 9.1 4.8 6.9 86 1.0 SW 19 26 10 14 1018.3 1018.6 0.6
23/03:30am 9.0 4.4 6.6 85 1.1 WSW 20 30 11 16 1018.1 - 0.6
23/03:00am 8.9 5.3 6.9 87 0.9 SW 15 20 8 11 1018.1 1018.4 0.6
23/02:30am 8.8 4.3 6.9 88 0.9 WSW 20 26 11 14 1017.8 - 0.6
23/02:00am 9.0 4.6 7.3 89 0.8 SW 20 28 11 15 1017.9 1018.2 0.6
23/01:30am 8.8 5.3 7.3 90 0.7 SW 15 26 8 14 1017.5 - 0.6
23/01:00am 8.9 4.6 7.2 89 0.8 WSW 19 24 10 13 1017.8 1018.1 0.6
23/12:30am 8.8 4.5 6.8 87 0.9 WSW 19 26 10 14 1017.7 - 0.6
23/12:00am 8.8 4.3 6.8 87 0.9 WSW 20 30 11 16 1017.9 1018.2 0.6
 
Date/Time
WST
Temp
°C
App
Temp
°C
Dew
Point
Rel
Hum
%
Delta-T
°C
Wind Press
QNH
hPa
Press
MSL
hPa
Rain
since 9 am
mm
Dir
 
Spd
km/h
Gust
km/h
Spd
kts
Gust
kts
22/11:30pm 8.7 4.1 6.7 87 0.9 WSW 20 30 11 16 1017.9 - 0.6
22/11:00pm 8.7 3.8 6.8 88 0.9 WSW 22 35 12 19 1017.9 1018.2 0.6
22/10:30pm 8.6 3.7 6.7 88 0.9 WSW 22 32 12 17 1017.5 - 0.6
22/10:00pm 8.1 3.6 6.2 88 0.9 W 19 24 10 13 1017.3 1017.6 0.6
22/09:30pm 8.4 4.4 6.5 88 0.9 WSW 17 26 9 14 1017.2 - 0.6
22/09:00pm 8.5 4.5 6.5 87 0.9 W 17 26 9 14 1017.0 1017.3 0.6
22/08:30pm 8.5 4.5 6.5 87 0.9 W 17 28 9 15 1016.9 - 0.6
22/08:00pm 8.3 4.9 6.1 86 1.0 W 13 19 7 10 1016.5 1016.8 0.6
22/07:30pm 8.7 4.6 6.0 83 1.3 W 17 24 9 13 1016.2 - 0.6
22/07:00pm 8.8 5.1 6.1 83 1.3 W 15 20 8 11 1015.8 1016.0 0.6
22/06:30pm 9.3 6.0 6.2 81 1.5 W 13 19 7 10 1015.3 - 0.6
22/06:00pm 10.0 5.3 6.2 77 1.8 W 20 30 11 16 1014.9 1015.2 0.6
22/05:30pm 9.9 6.5 5.9 76 1.9 W 13 19 7 10 1014.5 - 0.6
22/05:00pm 10.9 5.7 5.7 70 2.4 W 22 32 12 17 1014.3 1014.6 0.6
22/04:30pm 11.9 6.6 5.1 63 3.2 W 22 39 12 21 1013.9 - 0.6
22/04:00pm 11.9 6.7 5.3 64 3.1 W 22 30 12 16 1013.6 1013.9 0.6
22/03:30pm 12.4 6.8 5.3 62 3.3 W 24 33 13 18 1013.2 - 0.6
22/03:00pm 11.9 5.8 4.9 62 3.3 W 26 33 14 18 1013.0 1013.2 0.6
22/02:45pm 12.9 6.5 5.1 59 3.7 W 28 46 15 25 1012.7 - 0.6
22/02:30pm 12.2 6.1 4.9 61 3.4 W 26 37 14 20 1012.6 - 0.6
22/02:00pm 12.7 7.1 5.4 61 3.5 W 24 33 13 18 1012.5 1012.7 0.6
22/01:30pm 12.6 6.7 5.8 63 3.2 W 26 39 14 21 1012.4 - 0.6
22/01:00pm 11.6 6.1 6.1 69 2.6 WSW 24 33 13 18 1012.5 1012.7 0.6
22/12:30pm 11.0 5.1 5.7 70 2.5 WSW 26 35 14 19 1012.7 - 0.6
22/12:00pm 11.5 7.2 7.2 75 2.1 W 19 30 10 16 1013.1 1013.3 0.6
22/11:30am 10.0 5.7 6.9 81 1.5 W 19 30 10 16 1013.4 - 0.6
22/11:00am 10.7 6.4 7.0 78 1.8 W 19 32 10 17 1013.6 1013.9 0.0
22/10:30am 10.0 5.5 6.3 78 1.8 W 19 26 10 14 1013.8 - 0.0
22/10:00am 9.7 5.2 6.8 82 1.4 W 20 30 11 16 1013.9 1014.2 0.0
22/09:30am 8.9 5.0 7.0 88 0.9 W 17 26 9 14 1013.5 - 0.0
22/09:00am 8.4 5.2 6.9 90 0.7 WNW 13 19 7 10 1013.5 1013.8 8.0
22/08:30am 8.1 4.8 6.6 90 0.7 WNW 13 19 7 10 1013.4 - 8.0
22/08:00am 7.8 4.9 6.3 90 0.7 WNW 11 15 6 8 1013.0 1013.2 8.0
22/07:30am 7.6 5.9 5.9 89 0.8 N 4 4 2 2 1011.9 - 8.0
22/07:00am 7.5 6.5 5.8 89 0.8 CALM 0 0 0 0 1011.8 1012.1 8.0
22/06:30am 7.6 5.5 5.9 89 0.8 W 6 9 3 5 1012.0 - 7.4
22/06:00am 7.7 3.9 6.0 89 0.8 WSW 15 19 8 10 1011.8 1012.1 7.4
22/05:30am 8.4 4.1 6.9 90 0.7 W 19 28 10 15 1011.7 - 7.2
22/05:00am 8.7 7.3 7.2 90 0.7 NW 4 6 2 3 1011.5 1011.8 6.4
22/04:30am 8.7 6.9 7.2 90 0.7 N 6 7 3 4 1011.3 - 4.8
22/04:00am 8.8 6.0 7.1 89 0.8 NNW 11 15 6 8 1011.7 1012.0 3.8
22/03:30am 8.9 5.3 6.9 87 1.0 NW 15 22 8 12 1011.9 - 2.2
22/03:00am 9.3 6.3 5.9 79 1.6 NW 11 13 6 7 1012.2 1012.5 0.0
22/02:30am 9.2 6.5 5.8 79 1.6 N 9 13 5 7 1011.8 - 0.0
22/02:00am 9.3 6.6 5.7 78 1.7 N 9 13 5 7 1011.9 1012.2 0.0
22/01:30am 9.7 6.6 5.7 76 1.9 N 11 15 6 8 1012.2 - 0.0
22/01:00am 9.8 6.8 6.0 77 1.8 N 11 13 6 7 1012.4 1012.6 0.0
22/12:30am 9.9 7.3 6.1 77 1.8 NNE 9 11 5 6 1012.7 - 0.0
22/12:00am 10.4 7.0 5.8 73 2.2 N 13 17 7 9 1013.1 1013.3 0.0
 
Date/Time
WST
Temp
°C
App
Temp
°C
Dew
Point
Rel
Hum
%
Delta-T
°C
Wind Press
QNH
hPa
Press
MSL
hPa
Rain
since 9 am
mm
Dir
 
Spd
km/h
Gust
km/h
Spd
kts
Gust
kts
21/11:30pm 10.5 7.1 6.1 74 2.1 N 13 17 7 9 1013.5 - 0.0
21/11:00pm 10.7 8.2 6.6 76 2.0 N 9 11 5 6 1013.6 1013.9 0.0
21/10:30pm 10.4 7.9 6.4 76 1.9 N 9 13 5 7 1013.8 - 0.0
21/10:00pm 11.3 8.1 6.8 74 2.2 N 13 15 7 8 1014.0 1014.3 0.0
21/09:30pm 11.6 8.9 7.3 75 2.1 N 11 15 6 8 1014.2 - 0.0
21/09:00pm 11.6 8.9 7.3 75 2.1 N 11 15 6 8 1014.3 1014.6 0.0
21/08:30pm 11.6 8.8 7.1 74 2.2 N 11 15 6 8 1014.1 - 0.0
21/08:00pm 11.8 9.4 7.1 73 2.3 N 9 11 5 6 1014.3 1014.6 0.0
21/07:30pm 11.6 8.9 7.3 75 2.1 N 11 15 6 8 1014.3 - 0.0
21/07:00pm 10.9 8.5 7.2 78 1.8 NNE 9 11 5 6 1014.3 1014.6 0.0
21/06:30pm 11.5 9.1 7.2 75 2.1 N 9 13 5 7 1014.3 - 0.0
21/06:00pm 11.1 8.4 7.2 77 1.9 N 11 13 6 7 1014.3 1014.6 0.0
21/05:30pm 11.0 8.6 7.1 77 1.9 N 9 11 5 6 1014.1 - 0.0
21/05:00pm 11.8 9.1 7.3 74 2.2 N 11 15 6 8 1014.1 1014.4 0.0
21/04:30pm 13.8 9.7 8.0 68 2.9 NNW 19 24 10 13 1014.2 - 0.0
21/04:00pm 13.4 9.6 7.6 68 2.9 NNW 17 24 9 13 1014.1 1014.4 0.0
21/03:30pm 14.2 10.0 8.4 68 3.0 NNW 20 28 11 15 1014.1 - 0.0
21/03:00pm 13.7 9.8 8.7 72 2.6 NNW 19 28 10 15 1014.1 1014.4 0.0
21/02:30pm 13.7 10.5 8.5 71 2.6 NNW 15 24 8 13 1014.2 - 0.0
21/02:00pm 12.8 9.1 8.1 73 2.4 NW 17 24 9 13 1014.6 1014.9 0.0
21/01:30pm 12.5 8.9 8.4 76 2.1 NW 17 24 9 13 1014.9 - 0.0
21/01:00pm 11.8 7.6 8.3 79 1.8 NW 20 28 11 15 1015.3 1015.6 0.0
21/12:30pm 12.4 8.2 8.1 75 2.2 NNW 20 28 11 15 1015.5 - 0.0

Other Formats:

Comma delimited format used in spreadsheet applications
http://www.bom.gov.au/fwo/IDW60801/IDW60801.94628.axf

JavaScript Object Notation format (JSON) in row-major order
http://www.bom.gov.au/fwo/IDW60801/IDW60801.94628.json